Tiempo atmosférico en la estación meteorológica de Larraga, Navarra (375 m.)



Fecha
DESCASC
Temp. máxima en grados centígrados (hora)
DESCASC
Temp. mínima en grados centígrados (hora)
DESCASC
Temp. media en grados centígrados
DESCASC
Racha de viento máxima en m/sg (hora)
DESCASC
Velocidad máxima media en intervalos de 10 minutos(hora)
DESCASC
Precipitaciones diarias en mm
DESCASC
Precipitaciones de 00:00 a 06:00 en mm
DESCASC
Precipitaciones de 06:00 a 12:00 en mm
DESCASC
Precipitaciones de 12:00 a 18:00 en mm
DESCASC
Precipitaciones de 18:00 a 24:00 en mm
DESCASC
27-01-2020 9.4 (15:20) 1 (01:40) 5.2 12.22 (20:50) 8.61 (20:50) 0.2 0 0 0.2 0
26-01-2020 12.9 (16:00) 3.1 (23:50) 8 8.33 (00:20) 5.83 (00:10) 0.6 0 0.6 0 0
25-01-2020 9.5 (16:40) 4.9 (00:00) 7.2 9.44 (17:20) 6.94 (14:50) 1 0 0 0.6 0.4
24-01-2020 10.4 (14:30) 4.8 (00:00) 7.6 7.5 (02:40) 5 (15:10) 0 0 0 0 0
23-01-2020 8.1 (14:20) 5.1 (00:00) 6.6 9.44 (17:40) 6.94 (17:40) 0 0 0 0 0
22-01-2020 10.4 (15:00) 2.1 (00:00) 6.2 4.44 (01:40) 2.5 (01:50) 0.8 0.2 0 0 0.6
21-01-2020 4 (13:20) 0.4 (00:00) 2.2 9.72 (03:30) 6.67 (03:30) 2.4 0 1.2 1.2 0
20-01-2020 4.3 (15:10) 0.1 (00:00) 2.2 20.28 (05:20) 13.89 (02:00) 0 0 0 0 0
19-01-2020 6.9 (15:00) 2.4 (00:00) 4.7 16.67 (18:20) 11.11 (21:50) 4.2 4.2 0 0 0
18-01-2020 10.3 (13:30) 0.8 (00:00) 5.6 18.06 (15:20) 10.56 (15:20) 14.4 0 0 0 14.4
17-01-2020 10.8 (11:50) 3.1 (00:00) 7 12.22 (02:20) 8.33 (01:40) 0.2 0 0 0.2 0
16-01-2020 14.2 (15:00) -0.5 (-00:0) 6.8 15.28 (16:10) 11.67 (17:00) 0 0 0 0 0
15-01-2020 10.5 (15:00) -1.5 (-00:0) 4.5 10.28 (12:20) 6.11 (12:30) 0 0 0 0 0
14-01-2020 3.5 (16:40) -2.3 (-00:0) 0.6 2.78 (15:10) 1.67 (15:40) 0.2 0 0 0.2 0
13-01-2020 4.5 (15:10) -3.4 (-00:0) 0.5 3.61 (14:20) 2.22 (14:30) 0 0 0 0 0
12-01-2020 12.4 (16:00) -2.9 (-00:0) 4.7 4.17 (17:30) 2.78 (21:50) 0 0 0 0 0
11-01-2020 12.3 (16:30) 0.5 (00:00) 6.4 10.83 (01:50) 7.5 (01:50) 0 0 0 0 0
10-01-2020 10.4 (16:00) 4.2 (00:00) 7.3 12.22 (13:10) 8.61 (13:10) 0.2 0 0.2 0 0
09-01-2020 4.3 (22:50) 3 (00:00) 3.7 5.28 (14:10) 2.78 (14:30) 1.6 0 0.2 0 1.4
08-01-2020 10.7 (05:20) 1.7 (00:00) 6.2 9.72 (09:20) 5.83 (09:20) 0 0 0 0 0
07-01-2020 9.8 (16:30) -1.5 (-00:0) 4.2 4.72 (23:50) 3.06 (23:50) 0.2 0 0.2 0 0
06-01-2020 2.2 (00:10) -1.7 (-00:0) 0.3 3.33 (21:20) 1.94 (21:20) 0 0 0 0 0
05-01-2020 14.4 (16:30) 2.1 (00:00) 8.2 4.72 (04:00) 3.33 (02:50) 0 0 0 0 0
04-01-2020 11.4 (13:00) 4.2 (00:00) 7.8 11.11 (13:20) 8.33 (14:00) 0 0 0 0 0
03-01-2020 8 (15:20) -1.1 (-00:0) 3.4 3.61 (11:20) 2.5 (22:50) 0 0 0 0 0
02-01-2020 0.4 (21:20) -1 (-00:0) -0.3 3.61 (15:30) 1.67 (19:50) 0.2 0 0 0.2 0
01-01-2020 1.6 (14:50) 0.1 (00:00) 0.9 3.33 (01:30) 1.94 (01:30) 0.2 0 0.2 0 0
31-12-2019 1.8 (00:00) 0.6 (00:00) 1.2 3.33 (11:50) 2.22 (22:10) 0 0 0 0 0
30-12-2019 -- (--) -- (--) -- -- (--) -- (--) -- 0.2 0.2 0 --

Gráficas

Temp. máximas Temp. mínimas Temp. medias Precipitaciones Rachas de viento máximas Velocidades máximas media en intervalos de 10 minutos

Datos horarios

Fecha y hora oficial Temperatura (ºC) Velocidad del viento (km/h) Dirección del viento Racha (km/h) Dirección de racha Precipitación (mm) Presión (hPa) Tendencia (hPa) Humedad (%)
2020-01-28 23:00:00 6.3 10 Norte 15 Noroeste 0 -- -- 86
2020-01-28 22:00:00 7.8 12 Norte 23 Norte 0 -- -- 80
2020-01-28 21:00:00 9 17 Norte 25 Norte 0 -- -- 76
2020-01-28 20:00:00 9.4 10 Norte 15 Noroeste 0 -- -- 75
2020-01-28 19:00:00 9.2 12 Noroeste 15 Oeste 0 -- -- 73
2020-01-28 18:00:00 12.7 7 Oeste 23 Oeste 0 -- -- 59
2020-01-28 17:00:00 14.5 17 Oeste 27 Oeste 0 -- -- 54
2020-01-28 16:00:00 15 8 Norte 13 Norte 0 -- -- 63
2020-01-28 15:00:00 14.4 5 Noroeste 13 Norte 0 -- -- 64
2020-01-28 14:00:00 14 3 Noroeste 13 Noroeste 0 -- -- 66
2020-01-28 13:00:00 12.8 6 Norte 18 Norte 0 -- -- 71
2020-01-28 12:00:00 11.9 10 Norte 14 Norte 0 -- -- 78
2020-01-28 11:00:00 9.3 4 Noroeste 9 Norte 0 -- -- 86
2020-01-28 10:00:00 6.6 2 Norte 9 Sudoeste 0 -- -- 94
2020-01-28 09:00:00 5.2 3 Sudoeste 6 Sudoeste 0 -- -- 94
2020-01-28 08:00:00 6.2 3 Sudoeste 6 Sudoeste 0 -- -- 92
2020-01-28 07:00:00 6.2 2 Sur 7 Sur 0 -- -- 92
2020-01-28 06:00:00 6.8 0 Calma 11 Sudeste 0 -- -- 88
2020-01-28 05:00:00 8 3 Sur 13 Sur 0 -- -- 84
2020-01-28 04:00:00 8.7 8 Sur 25 Sudeste 0 -- -- 82
2020-01-28 03:00:00 9.5 18 Sudeste 27 Sudeste 0 -- -- 79
2020-01-28 02:00:00 7.9 4 Sur 13 Sudeste 0 -- -- 88
2020-01-28 01:00:00 8 0 Calma 8 Sudeste 0 -- -- 86
2020-01-28 00:00:00 8.2 6 Sur 22 Sudeste 0 -- -- 85
2020-01-27 23:00:00 8.8 14 Sudeste 25 Sudeste 0 -- -- 81
2020-01-27 22:00:00 8.9 17 Sudeste 38 Sudeste 0 -- -- 79
2020-01-27 21:00:00 9.2 30 Sudeste 44 Sudeste 0 -- -- 77
2020-01-27 20:00:00 8.7 20 Sudeste 43 Sudeste 0 -- -- 79
2020-01-27 19:00:00 8.8 23 Sudeste 31 Sudeste 0 -- -- 78
2020-01-27 18:00:00 9 23 Sudeste 39 Sudeste 0 -- -- 79
2020-01-27 17:00:00 8.8 14 Este 21 Sudeste 0.2 -- -- 84
2020-01-27 16:00:00 9.2 8 Sur 32 Sudeste 0 -- -- 81
2020-01-27 15:00:00 8.7 10 Sudeste 21 Sudeste 0 -- -- 84
2020-01-27 14:00:00 6.8 2 Sur 10 Noroeste 0 -- -- 88
2020-01-27 13:00:00 5.6 0 Calma 6 Sudeste 0 -- -- 89
2020-01-27 12:00:00 4.9 0 Calma 4 Noroeste 0 -- -- 91
2020-01-27 11:00:00 3.8 2 Oeste 5 Noroeste 0 -- -- 97
2020-01-27 10:00:00 2.2 3 Oeste 6 Oeste 0 -- -- 98
2020-01-27 09:00:00 1.4 4 Noroeste 8 Norte 0 -- -- 97
2020-01-27 08:00:00 1.3 3 Noroeste 7 Noroeste 0 -- -- 97
2020-01-27 07:00:00 1 0 Calma 8 Noroeste 0 -- -- 97
2020-01-27 06:00:00 1.7 3 Nordeste 5 Nordeste 0 -- -- 96
2020-01-27 05:00:00 1.3 2 Sudeste 8 Noroeste 0 -- -- 96
2020-01-27 04:00:00 1.2 4 Norte 11 Noroeste 0 -- -- 96
2020-01-27 03:00:00 1.3 3 Norte 9 Sudeste 0 -- -- 96
2020-01-27 02:00:00 2.1 4 Sur 6 Sur 0 -- -- 96
2020-01-27 01:00:00 2 2 Sur 6 Sudeste 0 -- -- 94
2020-01-27 00:00:00 3.2 0 Calma 7 Sur 0 -- -- 93
2020-01-26 23:00:00 4.5 0 Calma 10 Este 0 -- -- 89
2020-01-26 22:00:00 4.7 4 Noroeste 8 Noroeste 0 -- -- 89
2020-01-26 21:00:00 5.9 3 Oeste 5 Oeste 0 -- -- 84
2020-01-26 20:00:00 6.6 3 Sudeste 6 Sudoeste 0 -- -- 82
2020-01-26 19:00:00 7.4 4 Sur 17 Oeste 0 -- -- 82
2020-01-26 18:00:00 9.5 15 Oeste 21 Oeste 0 -- -- 74
2020-01-26 17:00:00 11.6 13 Oeste 25 Oeste 0 -- -- 66
2020-01-26 16:00:00 12.9 9 Sudoeste 23 Oeste 0 -- -- 61
2020-01-26 15:00:00 12.3 9 Oeste 20 Oeste 0 -- -- 62
2020-01-26 14:00:00 11.7 8 Oeste 17 Sudoeste 0 -- -- 71
2020-01-26 13:00:00 10.7 7 Oeste 18 Oeste 0 -- -- 74
2020-01-26 12:00:00 9.8 12 Oeste 19 Oeste 0 -- -- 77
2020-01-26 11:00:00 8.8 8 Oeste 14 Oeste 0 -- -- 83
2020-01-26 10:00:00 6.9 7 Noroeste 10 Noroeste 0 -- -- 97
2020-01-26 09:00:00 6.9 5 Noroeste 9 Noroeste 0 -- -- 98
2020-01-26 08:00:00 7.1 4 Noroeste 9 Oeste 0.6 -- -- 98
2020-01-26 07:00:00 7.3 0 Calma 5 Sur 0 -- -- 97
2020-01-26 06:00:00 7.4 6 Sur 9 Sudeste 0 -- -- 97
2020-01-26 05:00:00 7.4 4 Sur 8 Sur 0 -- -- 97
2020-01-26 04:00:00 7.4 6 Sur 9 Sur 0 -- -- 96
2020-01-26 03:00:00 7.7 5 Sur 15 Sudeste 0 -- -- 96
2020-01-26 02:00:00 7.7 12 Sudeste 23 Sudeste 0 -- -- 96
2020-01-26 01:00:00 7.7 16 Sudeste 30 Sudeste 0 -- -- 96
2020-01-26 00:00:00 7.9 21 Sudeste 30 Sudeste 0 -- -- 96
2020-01-25 23:00:00 8.2 15 Sudeste 20 Sudeste 0 -- -- 95
2020-01-25 22:00:00 8.1 10 Sudeste 15 Sudeste 0.2 -- -- 94
2020-01-25 21:00:00 8.3 10 Sudeste 15 Sudeste 0 -- -- 92
2020-01-25 20:00:00 8.1 6 Sudeste 10 Sudeste 0 -- -- 93
2020-01-25 19:00:00 8.5 8 Sudeste 23 Sudeste 0.2 -- -- 91
2020-01-25 18:00:00 8.9 16 Sudeste 34 Sudeste 0 -- -- 90
2020-01-25 17:00:00 9.4 21 Sudeste 30 Sudeste 0 -- -- 86
2020-01-25 16:00:00 9.2 20 Sudeste 34 Sudeste 0 -- -- 89
2020-01-25 15:00:00 8.7 24 Sudeste 32 Este 0 -- -- 91
2020-01-25 14:00:00 8 17 Sudeste 24 Sudeste 0.2 -- -- 95
2020-01-25 13:00:00 7.7 17 Sudeste 25 Sudeste 0.4 -- -- 94
2020-01-25 12:00:00 7.7 14 Sudeste 23 Sudeste 0 -- -- 93
2020-01-25 11:00:00 6.8 7 Sudeste 10 Sudeste 0 -- -- 96
2020-01-25 10:00:00 5.8 0 Calma 2 Sudeste 0 -- -- 97
2020-01-25 09:00:00 5 0 Calma 5 Sur 0 -- -- 96
2020-01-25 08:00:00 5.2 0 Calma 4 Sur 0 -- -- 95
2020-01-25 07:00:00 5.3 0 Calma 5 Este 0 -- -- 95
2020-01-25 06:00:00 6.2 5 Sudeste 6 Sudeste 0 -- -- 93
2020-01-25 05:00:00 6.5 5 Sudeste 18 Sudeste 0 -- -- 92
2020-01-25 04:00:00 7 10 Sudeste 17 Sudeste 0 -- -- 92
2020-01-25 03:00:00 6.9 6 Sudeste 18 Sudeste 0 -- -- 92
2020-01-25 02:00:00 6.8 12 Sudeste 16 Sudeste 0 -- -- 93
2020-01-25 01:00:00 6.7 3 Nordeste 10 Este 0 -- -- 91
2020-01-25 00:00:00 6.8 0 Calma 16 Sudeste 0 -- -- 93
2020-01-24 23:00:00 6.8 3 Sur 9 Sudeste 0 -- -- 94
2020-01-24 22:00:00 7.4 3 Sur 16 Sudeste 0 -- -- 92
2020-01-24 21:00:00 7.8 0 Calma 12 Este 0 -- -- 89
2020-01-24 20:00:00 7.7 8 Este 23 Sudeste 0 -- -- 90
2020-01-24 19:00:00 8.8 17 Sudeste 25 Sudeste 0 -- -- 83
2020-01-24 18:00:00 9.7 15 Sudeste 23 Sudeste 0 -- -- 82
2020-01-24 17:00:00 10 9 Sudeste 21 Sudeste 0 -- -- 78
2020-01-24 16:00:00 10.2 14 Sudeste 24 Sudeste 0 -- -- 78
2020-01-24 15:00:00 10.1 15 Sudeste 25 Sudeste 0 -- -- 78
2020-01-24 14:00:00 9.7 13 Sudeste 23 Sudeste 0 -- -- 83
2020-01-24 13:00:00 8.6 10 Sudeste 17 Sudeste 0 -- -- 87
2020-01-24 12:00:00 7.2 10 Este 19 Este 0 -- -- 91
2020-01-24 11:00:00 6.4 5 Este 14 Este 0 -- -- 92
2020-01-24 10:00:00 5.5 0 Calma 6 Noroeste 0 -- -- 94
2020-01-24 09:00:00 4.8 3 Norte 9 Este 0 -- -- 94
2020-01-24 08:00:00 5.4 7 Sudeste 17 Este 0 -- -- 93
2020-01-24 07:00:00 6.2 4 Este 7 Este 0 -- -- 91
2020-01-24 06:00:00 6.1 3 Este 5 Sudeste 0 -- -- 91
2020-01-24 05:00:00 6 3 Sur 15 Sudeste 0 -- -- 91
2020-01-24 04:00:00 6.2 14 Sudeste 18 Sudeste 0 -- -- 90
2020-01-24 03:00:00 6.7 8 Sudeste 27 Sudeste 0 -- -- 87
2020-01-24 02:00:00 6.6 11 Sudeste 21 Sudeste 0 -- -- 88
2020-01-24 01:00:00 6.3 9 Sur 21 Sudeste 0 -- -- 88
2020-01-24 00:00:00 6.2 14 Sur 19 Sudeste 0 -- -- 88
2020-01-23 23:00:00 6.2 12 Sur 24 Sudeste 0 -- -- 87
2020-01-23 22:00:00 6.2 8 Sur 20 Sudeste 0 -- -- 88
2020-01-23 21:00:00 6.3 11 Sudeste 19 Sudeste 0 -- -- 88
2020-01-23 20:00:00 6.3 11 Sudeste 19 Sur 0 -- -- 88
2020-01-23 19:00:00 6.2 12 Sudeste 28 Este 0 -- -- 90
2020-01-23 18:00:00 7.1 21 Sudeste 34 Sudeste 0 -- -- 88
2020-01-23 17:00:00 7.8 22 Sudeste 31 Sudeste 0 -- -- 87
2020-01-23 16:00:00 7.9 19 Sudeste 24 Sudeste 0 -- -- 86
2020-01-23 15:00:00 7.9 14 Sudeste 24 Sudeste 0 -- -- 87
2020-01-23 14:00:00 7.9 8 Sudeste 12 Sudeste 0 -- -- 89
2020-01-23 13:00:00 7.1 4 Sudeste 7 Este 0 -- -- 92
2020-01-23 12:00:00 6.9 0 Calma 4 Sur 0 -- -- 94
2020-01-23 11:00:00 6.5 2 Sur 8 Sur 0 -- -- 98
2020-01-23 10:00:00 5.7 2 Sudeste 5 Sudoeste 0 -- -- 98
2020-01-23 09:00:00 5.1 3 Sur 6 Sur 0 -- -- 97
2020-01-23 08:00:00 5.4 0 Calma 8 Noroeste 0 -- -- 97
2020-01-23 07:00:00 5.7 3 Oeste 5 Oeste 0 -- -- 97
2020-01-23 06:00:00 5.8 4 Norte 8 Noroeste 0 -- -- 97
2020-01-23 05:00:00 5.9 3 Noroeste 14 Sudeste 0 -- -- 97
2020-01-23 04:00:00 6 10 Este 20 Sudeste 0 -- -- 97
2020-01-23 03:00:00 6.1 11 Sudeste 14 Sudeste 0 -- -- 97
2020-01-23 02:00:00 5.7 2 Sudoeste 6 Este 0 -- -- 97
2020-01-23 01:00:00 6 0 Calma 4 Este 0 -- -- 97
2020-01-23 00:00:00 6.1 4 Este 6 Este 0 -- -- 96
2020-01-22 23:00:00 6.2 0 Calma 10 Sudoeste 0 -- -- 95
2020-01-22 22:00:00 6.5 3 Sudoeste 6 Oeste 0.2 -- -- 95
2020-01-22 21:00:00 6.9 2 Sudeste 5 Oeste 0.2 -- -- 93
2020-01-22 20:00:00 7.3 3 Sur 8 Sur 0.2 -- -- 91
2020-01-22 19:00:00 7.8 4 Oeste 9 Noroeste 0 -- -- 91
2020-01-22 18:00:00 8.6 5 Oeste 8 Oeste 0 -- -- 86
2020-01-22 17:00:00 9.5 4 Oeste 11 Oeste 0 -- -- 80
2020-01-22 16:00:00 9.6 6 Oeste 15 Oeste 0 -- -- 79
2020-01-22 15:00:00 10.4 3 Sudoeste 11 Oeste 0 -- -- 74
2020-01-22 14:00:00 8.9 2 Sudoeste 10 Oeste 0 -- -- 77
2020-01-22 13:00:00 7.8 7 Noroeste 14 Noroeste 0 -- -- 81
2020-01-22 12:00:00 6.2 4 Noroeste 7 Noroeste 0 -- -- 86
2020-01-22 11:00:00 4 3 Noroeste 7 Oeste 0 -- -- 94
2020-01-22 10:00:00 2.4 2 Noroeste 8 Noroeste 0 -- -- 95
2020-01-22 09:00:00 2.4 6 Oeste 7 Noroeste 0 -- -- 95
2020-01-22 08:00:00 2.7 3 Noroeste 6 Oeste 0 -- -- 94
2020-01-22 07:00:00 3.1 0 Calma 9 Oeste 0 -- -- 94
2020-01-22 06:00:00 2.9 3 Sudoeste 12 Noroeste 0 -- -- 95
2020-01-22 05:00:00 2.9 3 Noroeste 8 Noroeste 0.2 -- -- 94
2020-01-22 04:00:00 3.1 4 Noroeste 6 Noroeste 0 -- -- 92
2020-01-22 03:00:00 3.3 3 Norte 15 Oeste 0 -- -- 91
2020-01-22 02:00:00 2.9 6 Oeste 16 Oeste 0 -- -- 91
2020-01-22 01:00:00 2.1 5 Sur 9 Oeste 0 -- -- 92
2020-01-22 00:00:00 2.7 3 Oeste 8 Sudoeste 0 -- -- 90
2020-01-21 23:00:00 3.1 3 Oeste 16 Noroeste 0 -- -- 87
2020-01-21 22:00:00 3.5 7 Oeste 15 Oeste 0 -- -- 85
2020-01-21 21:00:00 2.9 8 Noroeste 13 Noroeste 0 -- -- 88
2020-01-21 20:00:00 2.7 7 Noroeste 14 Norte 0 -- -- 88
2020-01-21 19:00:00 3.2 10 Noroeste 21 Norte 0 -- -- 85
2020-01-21 18:00:00 3.5 3 Norte 20 Noroeste 0 -- -- 89
2020-01-21 17:00:00 3.4 9 Noroeste 22 Norte 0 -- -- 88
2020-01-21 16:00:00 3.3 11 Norte 22 Noroeste 0.4 -- -- 88
2020-01-21 15:00:00 3.2 9 Norte 27 Norte 0.6 -- -- 88
2020-01-21 14:00:00 3.4 14 Norte 24 Noroeste 0.2 -- -- 84
2020-01-21 13:00:00 3.9 10 Noroeste 17 Noroeste 0 -- -- 84
2020-01-21 12:00:00 2.9 3 Noroeste 8 Noroeste 1.2 -- -- 89
2020-01-21 11:00:00 3.2 3 Este 10 Noroeste 0 -- -- 84
2020-01-21 10:00:00 2.3 3 Norte 18 Noroeste 0 -- -- 85
2020-01-21 09:00:00 1.6 6 Noroeste 20 Noroeste 0 -- -- 86
2020-01-21 08:00:00 2.6 15 Norte 24 Norte 0 -- -- 77
2020-01-21 07:00:00 2.1 6 Norte 26 Oeste 0 -- -- 77
2020-01-21 06:00:00 2.4 20 Oeste 28 Oeste 0 -- -- 74
2020-01-21 05:00:00 2.3 21 Oeste 31 Noroeste 0 -- -- 74
2020-01-21 04:00:00 2.3 18 Noroeste 35 Oeste 0 -- -- 74
2020-01-21 03:00:00 1.1 11 Oeste 18 Oeste 0 -- -- 81
2020-01-21 02:00:00 0.5 4 Sudoeste 10 Oeste 0 -- -- 83
2020-01-21 01:00:00 1.2 9 Oeste 19 Oeste 0 -- -- 77
2020-01-21 00:00:00 0.4 7 Oeste 21 Oeste 0 -- -- 80
2020-01-20 23:00:00 0.1 5 Noroeste 16 Noroeste 0 -- -- 82
2020-01-20 22:00:00 0.6 9 Noroeste 20 Noroeste 0 -- -- 79
2020-01-20 21:00:00 1 12 Oeste 23 Noroeste 0 -- -- 77
2020-01-20 20:00:00 1 9 Noroeste 26 Noroeste 0 -- -- 77
2020-01-20 19:00:00 2.4 15 Noroeste 35 Noroeste 0 -- -- 71
2020-01-20 18:00:00 2.9 21 Noroeste 37 Noroeste 0 -- -- 66
2020-01-20 17:00:00 3.5 22 Norte 39 Norte 0 -- -- 61
2020-01-20 16:00:00 4.1 21 Norte 32 Noroeste 0 -- -- 58
2020-01-20 15:00:00 4.2 21 Norte 37 Noroeste 0 -- -- 60
2020-01-20 14:00:00 3.6 19 Noroeste 34 Noroeste 0 -- -- 59
2020-01-20 13:00:00 3.6 17 Noroeste 34 Noroeste 0 -- -- 59
2020-01-20 12:00:00 2.9 21 Noroeste 35 Noroeste 0 -- -- 63
2020-01-20 11:00:00 2.2 25 Noroeste 40 Noroeste 0 -- -- 65
2020-01-20 10:00:00 1.6 27 Noroeste 45 Noroeste 0 -- -- 67
2020-01-20 09:00:00 0.8 28 Noroeste 44 Noroeste 0 -- -- 70
2020-01-20 08:00:00 0.9 20 Noroeste 44 Noroeste 0 -- -- 69
2020-01-20 07:00:00 0.9 18 Noroeste 44 Norte 0 -- -- 70
2020-01-20 06:00:00 1.1 31 Noroeste 73 Norte 0 -- -- 70
2020-01-20 05:00:00 1.1 31 Noroeste 57 Norte 0 -- -- 70
2020-01-20 04:00:00 1.4 40 Norte 61 Norte 0 -- -- 70
2020-01-20 03:00:00 1.5 40 Noroeste 65 Noroeste 0 -- -- 70
2020-01-20 02:00:00 1.8 50 Noroeste 67 Noroeste 0 -- -- 70
2020-01-20 01:00:00 2 46 Norte 67 Norte 0 -- -- 70
2020-01-20 00:00:00 2.4 29 Norte 48 Noroeste 0 -- -- 67
2020-01-19 23:00:00 2.6 27 Norte 55 Noroeste 0 -- -- 65
2020-01-19 22:00:00 3.2 34 Norte 60 Norte 0 -- -- 63
2020-01-19 21:00:00 3.8 36 Norte 58 Norte 0 -- -- 60
2020-01-19 20:00:00 4.1 34 Norte 59 Noroeste 0 -- -- 59
2020-01-19 19:00:00 4.4 35 Norte 60 Noroeste 0 -- -- 59
2020-01-19 18:00:00 4.9 35 Noroeste 55 Noroeste 0 -- -- 58
2020-01-19 17:00:00 5.7 32 Noroeste 59 Noroeste 0 -- -- 57
2020-01-19 16:00:00 6.3 37 Norte 60 Norte 0 -- -- 55
2020-01-19 15:00:00 6.9 30 Norte 59 Noroeste 0 -- -- 57
2020-01-19 14:00:00 6.7 30 Norte 51 Norte 0 -- -- 61
2020-01-19 13:00:00 6.3 38 Noroeste 59 Noroeste 0 -- -- 68
2020-01-19 12:00:00 5.6 36 Noroeste 59 Norte 0 -- -- 68
2020-01-19 11:00:00 5.6 32 Noroeste 55 Noroeste 0 -- -- 68
2020-01-19 10:00:00 5.8 38 Noroeste 57 Noroeste 0 -- -- 72
2020-01-19 09:00:00 5.7 22 Norte 47 Noroeste 0 -- -- 78
2020-01-19 08:00:00 6.1 27 Norte 49 Norte 0 -- -- 77
2020-01-19 07:00:00 6.4 34 Noroeste 51 Norte 0 -- -- 80
2020-01-19 06:00:00 6.7 28 Norte 44 Norte 0 -- -- 82
2020-01-19 05:00:00 5.4 16 Noroeste 21 Noroeste 0 -- -- 93
2020-01-19 04:00:00 4.6 5 Noroeste 12 Oeste 0.2 -- -- 97
2020-01-19 03:00:00 4.5 9 Noroeste 11 Oeste 0.8 -- -- 97
2020-01-19 02:00:00 4.6 0 Calma 3 Oeste 1 -- -- 96
2020-01-19 01:00:00 4.8 0 Calma 6 Noroeste 2.2 -- -- 95
2020-01-19 00:00:00 4.9 5 Noroeste 8 Noroeste 1.6 -- -- 96
2020-01-18 23:00:00 5.1 3 Sudoeste 15 Norte 2 -- -- 95
2020-01-18 22:00:00 5.2 11 Norte 45 Noroeste 5 -- -- 93
2020-01-18 21:00:00 5.9 35 Noroeste 57 Noroeste 3.6 -- -- 90
2020-01-18 20:00:00 7.2 18 Este 36 Sudeste 0.4 -- -- 89
2020-01-18 19:00:00 7.6 14 Sudeste 41 Sudeste 1.8 -- -- 87
2020-01-18 18:00:00 8.7 31 Sudeste 50 Sudeste 0 -- -- 76
2020-01-18 17:00:00 9.6 31 Sudeste 45 Este 0 -- -- 71
2020-01-18 16:00:00 9.7 29 Sudeste 65 Sudeste 0 -- -- 70
2020-01-18 15:00:00 10.2 35 Sudeste 51 Sudeste 0 -- -- 66
2020-01-18 14:00:00 9.8 32 Sudeste 44 Sudeste 0 -- -- 67
2020-01-18 13:00:00 9.1 22 Sudeste 36 Sudeste 0 -- -- 72
2020-01-18 12:00:00 7.9 21 Sudeste 30 Sudeste 0 -- -- 78
2020-01-18 11:00:00 3.8 2 Norte 9 Este 0 -- -- 92
2020-01-18 10:00:00 2.9 5 Este 7 Este 0 -- -- 95
2020-01-18 09:00:00 2.1 4 Este 6 Este 0 -- -- 95
2020-01-18 08:00:00 1.8 0 Calma 7 Oeste 0 -- -- 95
2020-01-18 07:00:00 1.8 4 Este 6 Nordeste 0 -- -- 95
2020-01-18 06:00:00 1.7 2 Noroeste 7 Noroeste 0 -- -- 94
2020-01-18 05:00:00 1.6 4 Sur 7 Sur 0 -- -- 94
2020-01-18 04:00:00 1.3 2 Sudoeste 10 Nordeste 0 -- -- 92
2020-01-18 03:00:00 1.4 5 Norte 8 Norte 0 -- -- 93
2020-01-18 02:00:00 0.8 0 Calma 8 Noroeste 0 -- -- 92
2020-01-18 01:00:00 2.1 0 Calma 5 Norte 0 -- -- 88
2020-01-18 00:00:00 3.1 3 Noroeste 5 Sudoeste 0 -- -- 88
2020-01-17 23:00:00 4.5 2 Sur 5 Noroeste 0 -- -- 85
2020-01-17 22:00:00 5.6 3 Noroeste 6 Noroeste 0 -- -- 80
2020-01-17 21:00:00 5.5 3 Noroeste 10 Norte 0 -- -- 82
2020-01-17 20:00:00 6.2 6 Norte 14 Noroeste 0 -- -- 77
2020-01-17 19:00:00 7.7 10 Noroeste 18 Noroeste 0 -- -- 73
2020-01-17 18:00:00 8.4 10 Norte 28 Noroeste 0 -- -- 69
2020-01-17 17:00:00 9.1 12 Norte 27 Noroeste 0 -- -- 67
2020-01-17 16:00:00 9.2 18 Norte 35 Noroeste 0.2 -- -- 69
2020-01-17 15:00:00 10.2 15 Norte 23 Norte 0 -- -- 68
2020-01-17 14:00:00 10.2 13 Norte 24 Norte 0 -- -- 71
2020-01-17 13:00:00 9.9 19 Norte 32 Oeste 0 -- -- 74
2020-01-17 12:00:00 10.6 3 Norte 8 Este 0 -- -- 76
2020-01-17 11:00:00 8.8 0 Calma 17 Noroeste 0 -- -- 87
2020-01-17 10:00:00 6.7 4 Sur 14 Sur 0 -- -- 91
2020-01-17 09:00:00 6 9 Este 14 Nordeste 0 -- -- 90
2020-01-17 08:00:00 4.4 8 Noroeste 11 Noroeste 0 -- -- 94
2020-01-17 07:00:00 4.9 2 Norte 8 Sudeste 0 -- -- 91
2020-01-17 06:00:00 6.4 3 Sudeste 13 Sudeste 0 -- -- 89
2020-01-17 05:00:00 6.2 5 Noroeste 13 Este 0 -- -- 88
2020-01-17 04:00:00 7.7 6 Este 21 Sudeste 0 -- -- 85
2020-01-17 03:00:00 7.3 18 Sudeste 44 Sudeste 0 -- -- 87
2020-01-17 02:00:00 8.7 27 Sudeste 39 Sudeste 0 -- -- 83
2020-01-17 01:00:00 9.2 26 Sudeste 40 Sudeste 0 -- -- 81
2020-01-17 00:00:00 9.6 34 Sudeste 44 Sudeste 0 -- -- 78
2020-01-16 23:00:00 9.2 32 Sudeste 42 Sudeste 0 -- -- 80
2020-01-16 22:00:00 9.7 35 Sudeste 46 Sudeste 0 -- -- 78
2020-01-16 21:00:00 9.1 31 Sudeste 42 Sudeste 0 -- -- 81
2020-01-16 20:00:00 9 33 Sudeste 42 Sudeste 0 -- -- 82
2020-01-16 19:00:00 9.6 27 Sudeste 53 Sudeste 0 -- -- 80
2020-01-16 18:00:00 11.5 35 Sudeste 54 Sudeste 0 -- -- 72
2020-01-16 17:00:00 12.6 42 Sudeste 55 Sudeste 0 -- -- 70
2020-01-16 16:00:00 13.6 39 Sudeste 51 Sudeste 0 -- -- 67
2020-01-16 15:00:00 14.2 32 Sudeste 47 Sudeste 0 -- -- 67
2020-01-16 14:00:00 12.2 28 Sudeste 44 Sudeste 0 -- -- 72
2020-01-16 13:00:00 10.9 28 Sudeste 40 Sudeste 0 -- -- 76
2020-01-16 12:00:00 9.1 14 Sur 31 Sudeste 0 -- -- 82
2020-01-16 11:00:00 7.9 21 Sudeste 38 Sudeste 0 -- -- 86
2020-01-16 10:00:00 4.3 14 Sudeste 27 Sudeste 0 -- -- 99
2020-01-16 09:00:00 2.3 3 Este 8 Noroeste 0 -- -- 99
2020-01-16 08:00:00 -0.5 0 Calma 6 Sur 0 -- -- 97
2020-01-16 07:00:00 0.2 6 Noroeste 10 Sudeste 0 -- -- 96
2020-01-16 06:00:00 0.6 3 Noroeste 7 Sudoeste 0 -- -- 96
2020-01-16 05:00:00 0.6 0 Calma 7 Noroeste 0 -- -- 98
2020-01-16 04:00:00 0.2 8 Noroeste 11 Noroeste 0 -- -- 95
2020-01-16 03:00:00 2 6 Norte 11 Norte 0 -- -- 95
2020-01-16 02:00:00 1.4 10 Norte 12 Norte 0 -- -- 96
2020-01-16 01:00:00 1.6 5 Noroeste 8 Oeste 0 -- -- 95
2020-01-16 00:00:00 2 0 Calma 7 Noroeste 0 -- -- 94
2020-01-15 23:00:00 2.4 4 Noroeste 9 Noroeste 0 -- -- 94
2020-01-15 22:00:00 4.1 6 Este 14 Este 0 -- -- 91
2020-01-15 21:00:00 4.9 3 Noroeste 6 Nordeste 0 -- -- 89
2020-01-15 20:00:00 6.7 2 Noroeste 10 Este 0 -- -- 84
2020-01-15 19:00:00 7.6 8 Este 9 Este 0 -- -- 81
2020-01-15 18:00:00 8.7 0 Calma 9 Noroeste 0 -- -- 78
2020-01-15 17:00:00 9.8 2 Sudeste 6 Noroeste 0 -- -- 75
2020-01-15 16:00:00 9.8 7 Noroeste 12 Noroeste 0 -- -- 72
2020-01-15 15:00:00 10.5 4 Sudoeste 18 Sur 0 -- -- 69
2020-01-15 14:00:00 8.8 11 Sudeste 22 Sudeste 0 -- -- 74
2020-01-15 13:00:00 8.8 5 Este 37 Sudeste 0 -- -- 71
2020-01-15 12:00:00 7.1 15 Sudeste 29 Sudeste 0 -- -- 80
2020-01-15 11:00:00 5.5 13 Sudeste 22 Sudeste 0 -- -- 85
2020-01-15 10:00:00 2.7 3 Oeste 15 Sur 0 -- -- 89
2020-01-15 09:00:00 2.3 2 Sur 18 Este 0 -- -- 86
2020-01-15 08:00:00 1.7 2 Nordeste 15 Noroeste 0 -- -- 90
2020-01-15 07:00:00 4 13 Sudeste 25 Sudeste 0 -- -- 82
2020-01-15 06:00:00 3.2 14 Sudeste 22 Sudeste 0 -- -- 88
2020-01-15 05:00:00 2.4 3 Sudeste 21 Sudeste 0 -- -- 91
2020-01-15 04:00:00 0.4 5 Sudeste 14 Este 0 -- -- 98
2020-01-15 03:00:00 0.9 9 Este 14 Este 0 -- -- 100
2020-01-15 02:00:00 -1.4 5 Noroeste 12 Noroeste 0 -- -- 99
2020-01-15 01:00:00 -0.8 3 Norte 5 Norte 0 -- -- 98
2020-01-15 00:00:00 -0.7 3 Noroeste 6 Noroeste 0 -- -- 98
2020-01-14 23:00:00 -0.4 0 Calma 6 Sudeste 0 -- -- 98
2020-01-14 22:00:00 -0.3 3 Noroeste 7 Noroeste 0 -- -- 98
2020-01-14 21:00:00 0.2 0 Calma 4 Nordeste 0 -- -- 97
2020-01-14 20:00:00 0.2 0 Calma 6 Sur 0 -- -- 96
2020-01-14 19:00:00 0.4 0 Calma 3 Sur 0 -- -- 94
2020-01-14 18:00:00 1.8 4 Sur 9 Sur 0 -- -- 91
2020-01-14 17:00:00 3.3 5 Sur 10 Sur 0 -- -- 86
2020-01-14 16:00:00 3 4 Sudeste 10 Este 0 -- -- 90
2020-01-14 15:00:00 2.1 3 Este 8 Oeste 0 -- -- 99
2020-01-14 14:00:00 0.1 0 Calma 4 Oeste 0 -- -- 99
2020-01-14 13:00:00 -0.6 0 Calma 0 Calma 0.2 -- -- 99
2020-01-14 12:00:00 -1.3 0 Calma -- -- 0 -- -- 99
2020-01-14 11:00:00 -1.6 0 Calma -- -- 0 -- -- 99
2020-01-14 10:00:00 -1.9 0 Calma -- -- 0 -- -- 98
2020-01-14 09:00:00 -2.2 0 Calma -- -- 0 -- -- 98
2020-01-14 08:00:00 -2.2 0 Calma -- -- 0 -- -- 98
2020-01-14 07:00:00 -1.8 0 Calma -- -- 0 -- -- 98
2020-01-14 06:00:00 -2 0 Calma 4 Sur 0 -- -- 98
2020-01-14 05:00:00 -1.9 0 Calma 5 Este 0 -- -- 98
2020-01-14 04:00:00 -1.6 0 Calma 3 Sudeste 0 -- -- 98
2020-01-14 03:00:00 -1.6 3 Sudeste 4 Sudeste 0 -- -- 98
2020-01-14 02:00:00 -1.5 2 Sudoeste 7 Sur 0 -- -- 97
2020-01-14 01:00:00 -1.4 0 Calma 5 Noroeste 0 -- -- 97
2020-01-14 00:00:00 -1.9 3 Sur 5 Sur 0 -- -- 96
2020-01-13 23:00:00 -1.3 0 Calma 6 Oeste 0 -- -- 96
2020-01-13 22:00:00 -0.5 2 Noroeste 5 Noroeste 0 -- -- 97
2020-01-13 21:00:00 0.4 0 Calma 6 Este 0 -- -- 96
2020-01-13 20:00:00 0.5 3 Nordeste 5 Este 0 -- -- 94
2020-01-13 19:00:00 1.6 0 Calma 4 Sur 0 -- -- 90
2020-01-13 18:00:00 2.4 2 Sudeste 9 Sudeste 0 -- -- 88
2020-01-13 17:00:00 3.8 4 Sudeste 9 Sur 0 -- -- 85
2020-01-13 16:00:00 4.5 3 Este 8 Sudeste 0 -- -- 86
2020-01-13 15:00:00 4.3 3 Sur 13 Sur 0 -- -- 87
2020-01-13 14:00:00 3.9 3 Sur 7 Sur 0 -- -- 89
2020-01-13 13:00:00 1.9 2 Oeste 5 Sur 0 -- -- 95
2020-01-13 12:00:00 1.7 2 Sudeste 6 Sudeste 0 -- -- 96
2020-01-13 11:00:00 -0.1 0 Calma 4 Noroeste 0 -- -- 98
2020-01-13 10:00:00 -2.7 2 Sudeste 2 Sur 0 -- -- 97
2020-01-13 09:00:00 -3.4 0 Calma 2 Sudeste 0 -- -- 95
2020-01-13 08:00:00 -2.7 0 Calma 3 Noroeste 0 -- -- 96
2020-01-13 07:00:00 -2.4 0 Calma 2 Noroeste 0 -- -- 96
2020-01-13 06:00:00 -2.4 0 Calma 4 Noroeste 0 -- -- 96
2020-01-13 05:00:00 -1.5 3 Noroeste 5 Norte 0 -- -- 95
2020-01-13 04:00:00 -1 3 Noroeste 6 Noroeste 0 -- -- 95
2020-01-13 03:00:00 -0.4 0 Calma 6 Norte 0 -- -- 95
2020-01-13 02:00:00 -0.5 4 Noroeste 6 Noroeste 0 -- -- 93
2020-01-13 01:00:00 0.2 2 Norte 6 Noroeste 0 -- -- 91
2020-01-13 00:00:00 1.3 0 Calma 3 Este 0 -- -- 88
2020-01-12 23:00:00 2 0 Calma 9 Este 0 -- -- 87
2020-01-12 22:00:00 3.1 9 Este 12 Este 0 -- -- 86
2020-01-12 21:00:00 4.5 5 Norte 7 Norte 0 -- -- 77
2020-01-12 20:00:00 6.6 4 Noroeste 8 Noroeste 0 -- -- 69
2020-01-12 19:00:00 7.7 5 Noroeste 13 Norte 0 -- -- 65
2020-01-12 18:00:00 9.6 8 Norte 15 Norte 0 -- -- 59
2020-01-12 17:00:00 11.8 5 Norte 13 Nordeste 0 -- -- 52
2020-01-12 16:00:00 12.4 5 Este 10 Este 0 -- -- 54
2020-01-12 15:00:00 11.2 5 Nordeste 9 Este 0 -- -- 59
2020-01-12 14:00:00 10.3 3 Este 9 Este 0 -- -- 64
2020-01-12 13:00:00 7.9 5 Noroeste 7 Noroeste 0 -- -- 67
2020-01-12 12:00:00 6.4 3 Sudeste 7 Sur 0 -- -- 77
2020-01-12 11:00:00 2.6 0 Calma 4 Oeste 0 -- -- 86
2020-01-12 10:00:00 -0.2 0 Calma 8 Noroeste 0 -- -- 92
2020-01-12 09:00:00 -1.7 3 Noroeste 6 Noroeste 0 -- -- 95
2020-01-12 08:00:00 -2.1 3 Noroeste 6 Noroeste 0 -- -- 93
2020-01-12 07:00:00 -1.7 3 Noroeste 9 Noroeste 0 -- -- 95
2020-01-12 06:00:00 -1.8 4 Noroeste 10 Norte 0 -- -- 95
2020-01-12 05:00:00 -1.3 5 Noroeste 8 Norte 0 -- -- 95
2020-01-12 04:00:00 -0.9 3 Noroeste 4 Noroeste 0 -- -- 95
2020-01-12 03:00:00 -1.2 0 Calma 3 Norte 0 -- -- 94
2020-01-12 02:00:00 -0.6 2 Noroeste 5 Norte 0 -- -- 92
2020-01-12 01:00:00 0.2 2 Norte 6 Norte 0 -- -- 93
2020-01-12 00:00:00 0.6 4 Noroeste 5 Norte 0 -- -- 93
2020-01-11 23:00:00 1.7 2 Nordeste 4 Sudoeste 0 -- -- 92
2020-01-11 22:00:00 2.4 0 Calma 5 Noroeste 0 -- -- 91
2020-01-11 21:00:00 3.5 6 Noroeste 9 Noroeste 0 -- -- 89
2020-01-11 20:00:00 4.8 8 Norte 10 Norte 0 -- -- 82
2020-01-11 19:00:00 6.9 0 Calma 6 Sur 0 -- -- 78
2020-01-11 18:00:00 9.6 0 Calma -- -- 0 -- -- 66
2020-01-11 17:00:00 11.3 4 Este 6 Sudoeste 0 -- -- 61
2020-01-11 16:00:00 11.7 3 Oeste 13 Noroeste 0 -- -- 57
2020-01-11 15:00:00 10.8 8 Noroeste 18 Oeste 0 -- -- 59
2020-01-11 14:00:00 9.9 10 Oeste 19 Oeste 0 -- -- 66
2020-01-11 13:00:00 9.1 9 Oeste 17 Noroeste 0 -- -- 68
2020-01-11 12:00:00 8.4 8 Oeste 18 Oeste 0 -- -- 73
2020-01-11 11:00:00 6.4 9 Oeste 22 Oeste 0 -- -- 79
2020-01-11 10:00:00 4.5 9 Oeste 18 Noroeste 0 -- -- 82
2020-01-11 09:00:00 2.1 8 Noroeste 19 Noroeste 0 -- -- 85
2020-01-11 08:00:00 2.8 6 Oeste 17 Oeste 0 -- -- 83
2020-01-11 07:00:00 1.9 9 Oeste 15 Noroeste 0 -- -- 87
2020-01-11 06:00:00 2.5 16 Noroeste 25 Oeste 0 -- -- 84
2020-01-11 05:00:00 4.2 6 Sudoeste 33 Noroeste 0 -- -- 77
2020-01-11 04:00:00 5.9 23 Norte 36 Noroeste 0 -- -- 72
2020-01-11 03:00:00 5.5 6 Noroeste 35 Noroeste 0 -- -- 72
2020-01-11 02:00:00 6.5 26 Noroeste 39 Noroeste 0 -- -- 71
2020-01-11 01:00:00 6.2 14 Noroeste 28 Noroeste 0 -- -- 74
2020-01-11 00:00:00 6.7 19 Noroeste 42 Noroeste 0 -- -- 73
2020-01-10 23:00:00 6.1 17 Noroeste 30 Noroeste 0 -- -- 77
2020-01-10 22:00:00 6.6 18 Noroeste 31 Noroeste 0 -- -- 77
2020-01-10 21:00:00 7.2 21 Noroeste 32 Noroeste 0 -- -- 76
2020-01-10 20:00:00 6.7 16 Noroeste 23 Noroeste 0 -- -- 80
2020-01-10 19:00:00 7.6 6 Noroeste 14 Oeste 0 -- -- 79
2020-01-10 18:00:00 8.1 9 Noroeste 34 Noroeste 0 -- -- 74
2020-01-10 17:00:00 9.3 20 Noroeste 40 Noroeste 0 -- -- 70
2020-01-10 16:00:00 10.4 23 Noroeste 34 Noroeste 0 -- -- 68
2020-01-10 15:00:00 9.8 18 Noroeste 36 Noroeste 0 -- -- 73
2020-01-10 14:00:00 9.5 26 Noroeste 44 Noroeste 0 -- -- 74
2020-01-10 13:00:00 8.8 18 Noroeste 32 Noroeste 0 -- -- 76
2020-01-10 12:00:00 8.6 20 Noroeste 27 Noroeste 0 -- -- 79
2020-01-10 11:00:00 7.7 9 Oeste 21 Oeste 0.2 -- -- 85
2020-01-10 10:00:00 6.2 8 Oeste 27 Oeste 0 -- -- 87
2020-01-10 09:00:00 4.7 5 Sudoeste 26 Oeste 0 -- -- 90
2020-01-10 08:00:00 5.3 13 Noroeste 20 Oeste 0 -- -- 91
2020-01-10 07:00:00 6 13 Oeste 30 Noroeste 0 -- -- 84
2020-01-10 06:00:00 6.7 26 Noroeste 33 Noroeste 0 -- -- 79
2020-01-10 05:00:00 5.2 15 Oeste 23 Oeste 0 -- -- 98
2020-01-10 04:00:00 5 10 Oeste 17 Oeste 0 -- -- 99
2020-01-10 03:00:00 4.9 7 Oeste 10 Oeste 0 -- -- 99
2020-01-10 02:00:00 4.7 4 Sudoeste 16 Oeste 0 -- -- 99
2020-01-10 01:00:00 4.4 4 Sudoeste 14 Oeste 0 -- -- 100
2020-01-10 00:00:00 4.2 4 Oeste 8 Oeste 0 -- -- 99
2020-01-09 23:00:00 4.3 0 Calma 19 Oeste 1.2 -- -- 99
2020-01-09 22:00:00 3.9 2 Sudoeste 9 Sudoeste 0.2 -- -- 99
2020-01-09 21:00:00 4 2 Oeste 9 Este 0 -- -- 99
2020-01-09 20:00:00 4.1 7 Este 10 Este 0 -- -- 99
2020-01-09 19:00:00 4.1 2 Sur 10 Oeste 0 -- -- 100
2020-01-09 18:00:00 3.9 2 Oeste 12 Noroeste 0 -- -- 100
2020-01-09 17:00:00 3.8 3 Oeste 6 Oeste 0 -- -- 100
2020-01-09 16:00:00 3.6 6 Sur 14 Sudeste 0 -- -- 99
2020-01-09 15:00:00 3.8 3 Sur 19 Sur 0 -- -- 100
2020-01-09 14:00:00 3.9 7 Sur 13 Sur 0 -- -- 99
2020-01-09 13:00:00 3.8 4 Sur 10 Sudeste 0 -- -- 100
2020-01-09 12:00:00 3.6 6 Sudeste 10 Sudeste 0 -- -- 99
2020-01-09 11:00:00 3.5 3 Sur 7 Sur 0 -- -- 99
2020-01-09 10:00:00 3.2 2 Sudoeste 6 Sudoeste 0.2 -- -- 99
2020-01-09 09:00:00 3 4 Sur 5 Sur 0 -- -- 99
2020-01-09 08:00:00 3.1 2 Sur 4 Sudeste 0 -- -- 99
2020-01-09 07:00:00 3 2 Sur 5 Sudeste 0 -- -- 99
2020-01-09 06:00:00 3.1 4 Sur 6 Sudeste 0 -- -- 99
2020-01-09 05:00:00 3.2 0 Calma 5 Este 0 -- -- 99
2020-01-09 04:00:00 3.2 0 Calma 4 Noroeste 0 -- -- 99
2020-01-09 03:00:00 3.2 2 Norte 4 Norte 0 -- -- 99
2020-01-09 02:00:00 3.1 4 Noroeste 6 Noroeste 0 -- -- 99
2020-01-09 01:00:00 3 3 Noroeste 5 Norte 0 -- -- 99
2020-01-09 00:00:00 3.1 3 Nordeste 5 Este 0 -- -- 99
2020-01-08 23:00:00 3 4 Nordeste 7 Nordeste 0 -- -- 99
2020-01-08 22:00:00 2.8 3 Nordeste 12 Este 0 -- -- 99
2020-01-08 21:00:00 3.3 6 Sudeste 13 Este 0 -- -- 98
2020-01-08 20:00:00 3.6 3 Sur 5 Sur 0 -- -- 98
2020-01-08 19:00:00 3.9 2 Nordeste 3 Nordeste 0 -- -- 98
2020-01-08 18:00:00 4 3 Sudeste 6 Sudeste 0 -- -- 98
2020-01-08 17:00:00 4.3 4 Sudeste 12 Sur 0 -- -- 98
2020-01-08 16:00:00 4.7 6 Sudeste 12 Sudeste 0 -- -- 98
2020-01-08 15:00:00 4.6 6 Sur 20 Sudeste 0 -- -- 98
2020-01-08 14:00:00 4.3 10 Sudeste 19 Sudeste 0 -- -- 98
2020-01-08 13:00:00 3.4 14 Sudeste 23 Sudeste 0 -- -- 98
2020-01-08 12:00:00 2.8 12 Sudeste 19 Sudeste 0 -- -- 98
2020-01-08 11:00:00 2.3 8 Sudeste 23 Sudeste 0 -- -- 98
2020-01-08 10:00:00 1.7 17 Sudeste 35 Sudeste 0 -- -- 96
2020-01-08 09:00:00 3.2 19 Sudeste 26 Sudeste 0 -- -- 93
2020-01-08 08:00:00 6.9 5 Sur 11 Sudoeste 0 -- -- 89
2020-01-08 07:00:00 7.4 6 Oeste 16 Noroeste 0 -- -- 90
2020-01-08 06:00:00 7.5 0 Calma 25 Oeste 0 -- -- 90
2020-01-08 05:00:00 9.1 13 Oeste 22 Oeste 0 -- -- 85
2020-01-08 04:00:00 8.9 12 Oeste 23 Oeste 0 -- -- 89
2020-01-08 03:00:00 9.8 21 Oeste 27 Oeste 0 -- -- 83
2020-01-08 02:00:00 9.7 20 Oeste 25 Oeste 0 -- -- 83
2020-01-08 01:00:00 8.6 5 Oeste 14 Noroeste 0 -- -- 88
2020-01-08 00:00:00 8.3 10 Noroeste 17 Noroeste 0 -- -- 88
2020-01-07 23:00:00 7.8 9 Noroeste 13 Oeste 0 -- -- 87
2020-01-07 22:00:00 8.2 0 Calma 13 Noroeste 0 -- -- 88
2020-01-07 21:00:00 8.6 9 Noroeste 12 Noroeste 0 -- -- 86
2020-01-07 20:00:00 5.9 0 Calma 8 Noroeste 0 -- -- 91
2020-01-07 19:00:00 7.2 6 Noroeste 9 Norte 0 -- -- 88
2020-01-07 18:00:00 7.6 0 Calma 4 Sur 0 -- -- 84
2020-01-07 17:00:00 9.7 0 Calma 3 Nordeste 0 -- -- 81
2020-01-07 16:00:00 9.3 2 Sudeste 7 Sudeste 0 -- -- 79
2020-01-07 15:00:00 7.9 3 Este 8 Sudeste 0 -- -- 82
2020-01-07 14:00:00 5.3 3 Este 10 Este 0 -- -- 92
2020-01-07 13:00:00 3.2 6 Este 9 Sur 0 -- -- 98
2020-01-07 12:00:00 1.5 4 Sur 8 Sur 0 -- -- 99
2020-01-07 11:00:00 -0.3 0 Calma 8 Sudeste 0.2 -- -- 98
2020-01-07 10:00:00 -0.9 3 Sudeste 6 Sudeste 0 -- -- 99
2020-01-07 09:00:00 -1.3 0 Calma 2 Sur 0 -- -- 99
2020-01-07 08:00:00 -1.3 0 Calma 4 Sur 0 -- -- 98
2020-01-07 07:00:00 -0.3 0 Calma 6 Norte 0 -- -- 98
2020-01-07 06:00:00 1.1 0 Calma 8 Sudoeste 0 -- -- 98
2020-01-07 05:00:00 1 3 Sur 9 Oeste 0 -- -- 99
2020-01-07 04:00:00 0.6 6 Noroeste 11 Noroeste 0 -- -- 99
2020-01-07 03:00:00 0.3 5 Noroeste 9 Noroeste 0 -- -- 100
2020-01-07 02:00:00 -0.6 2 Oeste 11 Noroeste 0 -- -- 99
2020-01-07 01:00:00 -0.9 6 Sur 8 Sur 0 -- -- 99
2020-01-07 00:00:00 -1 0 Calma 6 Sudoeste 0 -- -- 99
2020-01-06 23:00:00 -1 3 Sudoeste 7 Noroeste 0 -- -- 98
2020-01-06 22:00:00 0.3 5 Noroeste 12 Norte 0 -- -- 99
2020-01-06 21:00:00 0.4 5 Noroeste 8 Noroeste 0 -- -- 99
2020-01-06 20:00:00 1 5 Noroeste 9 Noroeste 0 -- -- 98
2020-01-06 19:00:00 1.1 0 Calma 5 Noroeste 0 -- -- 99
2020-01-06 18:00:00 1 3 Noroeste 6 Noroeste 0 -- -- 98
2020-01-06 17:00:00 1.4 3 Oeste 6 Sudeste 0 -- -- 98
2020-01-06 16:00:00 1.4 0 Calma 6 Sur 0 -- -- 98
2020-01-06 15:00:00 1 2 Nordeste 6 Nordeste 0 -- -- 98
2020-01-06 14:00:00 0.8 3 Nordeste 6 Este 0 -- -- 98
2020-01-06 13:00:00 0.9 3 Sur 6 Sur 0 -- -- 98
2020-01-06 12:00:00 0.6 2 Sur 5 Sudeste 0 -- -- 99
2020-01-06 11:00:00 0 0 Calma 5 Sudoeste 0 -- -- 98
2020-01-06 10:00:00 0 0 Calma 4 Sudeste 0 -- -- 98